createdAt,value
2022-12-31T00:00:47.724Z,18.25
2022-12-31T00:03:14.708Z,15.55
2022-12-31T00:05:44.566Z,18.20
2022-12-31T00:08:11.590Z,19.10
2022-12-31T00:10:38.518Z,21.17
2022-12-31T00:13:05.583Z,20.40
2022-12-31T00:15:32.646Z,23.17
2022-12-31T00:17:59.484Z,20.55
2022-12-31T00:20:26.533Z,23.33
2022-12-31T00:22:53.524Z,21.33
2022-12-31T00:25:20.651Z,22.63
2022-12-31T00:27:47.680Z,20.42
2022-12-31T00:30:15.010Z,17.20
2022-12-31T00:32:42.455Z,20.03
2022-12-31T00:35:09.770Z,17.63
2022-12-31T00:37:36.937Z,17.02
2022-12-31T00:40:04.985Z,16.88
2022-12-31T00:42:31.869Z,16.95
2022-12-31T00:44:58.847Z,21.97
2022-12-31T00:47:25.733Z,23.60
2022-12-31T00:49:52.867Z,24.27
2022-12-31T00:52:19.885Z,23.88
2022-12-31T00:54:46.917Z,23.52
2022-12-31T00:57:13.947Z,21.30
2022-12-31T00:59:40.971Z,19.80
2022-12-31T01:02:08.038Z,15.52
2022-12-31T01:04:35.198Z,19.65
2022-12-31T01:07:02.180Z,18.23
2022-12-31T01:09:29.137Z,19.87
2022-12-31T01:11:56.027Z,20.73
2022-12-31T01:14:23.467Z,18.73
2022-12-31T01:16:52.760Z,21.95
2022-12-31T01:19:24.584Z,21.75
2022-12-31T01:21:52.784Z,25.40
2022-12-31T01:24:20.554Z,23.83
2022-12-31T01:26:47.848Z,25.35
2022-12-31T01:29:15.376Z,19.67
2022-12-31T01:31:42.241Z,20.27
2022-12-31T01:34:09.241Z,21.47
2022-12-31T01:36:37.289Z,18.42
2022-12-31T01:39:06.884Z,17.02
2022-12-31T01:41:42.469Z,20.58
2022-12-31T01:44:12.484Z,22.67
2022-12-31T01:46:46.994Z,22.00
2022-12-31T01:49:21.666Z,22.63
2022-12-31T01:52:00.644Z,18.40
2022-12-31T01:54:34.103Z,21.23
2022-12-31T01:57:01.976Z,20.85
2022-12-31T01:59:29.732Z,18.67
2022-12-31T02:01:56.999Z,17.00
2022-12-31T02:04:26.493Z,17.92
2022-12-31T02:07:13.807Z,18.83
2022-12-31T02:09:42.290Z,17.20
2022-12-31T02:12:10.267Z,16.03
2022-12-31T02:14:48.132Z,15.38
2022-12-31T02:17:32.036Z,17.33
2022-12-31T02:20:18.927Z,19.60
2022-12-31T02:22:48.514Z,19.67
2022-12-31T02:25:45.817Z,20.10
2022-12-31T02:28:39.029Z,18.85
2022-12-31T02:31:46.272Z,18.38
2022-12-31T02:34:25.917Z,18.42
2022-12-31T02:36:57.029Z,19.50
2022-12-31T02:39:24.184Z,20.57
2022-12-31T02:41:52.179Z,21.23
2022-12-31T02:44:25.170Z,19.75
2022-12-31T02:47:09.261Z,19.80
2022-12-31T02:50:18.149Z,20.40
2022-12-31T02:53:10.321Z,23.87
2022-12-31T02:55:58.806Z,22.40
2022-12-31T02:59:01.915Z,23.23
2022-12-31T03:01:36.241Z,22.55
2022-12-31T03:04:04.703Z,23.73
2022-12-31T03:06:31.822Z,20.57
2022-12-31T03:09:02.898Z,22.42
2022-12-31T03:11:29.771Z,21.85
2022-12-31T03:13:56.752Z,24.48
2022-12-31T03:16:23.674Z,23.90
2022-12-31T03:18:50.665Z,24.07
2022-12-31T03:21:17.642Z,24.58
2022-12-31T03:23:45.104Z,23.58
2022-12-31T03:26:12.812Z,24.73
2022-12-31T03:28:42.111Z,22.20
2022-12-31T03:31:09.615Z,22.90
2022-12-31T03:33:39.627Z,25.20
2022-12-31T03:36:09.972Z,23.83
2022-12-31T03:38:37.253Z,20.95
2022-12-31T03:41:04.620Z,19.58
2022-12-31T03:43:31.879Z,24.13
2022-12-31T03:45:58.818Z,20.92
2022-12-31T03:48:25.760Z,18.13
2022-12-31T03:50:52.780Z,17.55
2022-12-31T03:53:19.888Z,23.15
2022-12-31T03:55:51.712Z,22.33
2022-12-31T03:58:18.687Z,22.45
2022-12-31T04:00:45.591Z,25.48
2022-12-31T04:03:12.533Z,18.70
2022-12-31T04:05:39.513Z,18.88
2022-12-31T04:08:06.414Z,21.53
2022-12-31T04:10:33.452Z,22.60
2022-12-31T04:13:00.287Z,18.27
2022-12-31T04:15:27.190Z,20.45
2022-12-31T04:17:54.193Z,17.35
2022-12-31T04:20:21.117Z,17.70
2022-12-31T04:22:48.076Z,18.48
2022-12-31T04:25:15.109Z,17.88
2022-12-31T04:27:42.910Z,17.98
2022-12-31T04:30:11.601Z,16.70
2022-12-31T04:32:38.453Z,17.47
2022-12-31T04:35:05.797Z,19.77
2022-12-31T04:37:32.746Z,17.08
2022-12-31T04:40:05.371Z,16.73
2022-12-31T04:42:32.993Z,19.85
2022-12-31T04:44:59.997Z,18.40
2022-12-31T04:47:26.869Z,19.92
2022-12-31T04:49:53.834Z,17.80
2022-12-31T04:52:20.796Z,20.05
2022-12-31T04:54:47.782Z,19.27
2022-12-31T04:57:14.785Z,19.20
2022-12-31T04:59:41.697Z,17.25
2022-12-31T05:02:08.781Z,20.65
2022-12-31T05:04:35.802Z,21.55
2022-12-31T05:07:02.829Z,24.88
2022-12-31T05:09:29.751Z,22.07
2022-12-31T05:11:56.902Z,22.67
2022-12-31T05:14:23.748Z,23.55
2022-12-31T05:16:50.737Z,23.45
2022-12-31T05:19:17.939Z,22.85
2022-12-31T05:21:44.811Z,18.60
2022-12-31T05:24:11.689Z,18.08
2022-12-31T05:26:38.695Z,19.38
2022-12-31T05:29:05.655Z,22.95
2022-12-31T05:31:32.668Z,23.65
2022-12-31T05:33:59.510Z,17.97
2022-12-31T05:36:26.528Z,23.17
2022-12-31T05:38:53.438Z,24.42
2022-12-31T05:41:20.397Z,23.10
2022-12-31T05:43:47.201Z,24.05
2022-12-31T05:46:14.334Z,17.67
2022-12-31T05:48:41.333Z,22.73
2022-12-31T05:51:08.226Z,21.65
2022-12-31T05:53:35.228Z,20.17
2022-12-31T05:56:02.255Z,23.30
2022-12-31T05:58:29.179Z,22.27
2022-12-31T06:00:56.112Z,22.42
2022-12-31T06:03:23.068Z,21.45
2022-12-31T06:05:50.070Z,28.33
2022-12-31T06:08:17.208Z,30.55
2022-12-31T06:10:44.104Z,28.40
2022-12-31T06:13:11.156Z,28.52
2022-12-31T06:15:39.893Z,26.35
2022-12-31T06:18:06.992Z,23.85
2022-12-31T06:20:36.702Z,22.92
2022-12-31T06:23:04.275Z,23.17
2022-12-31T06:25:31.364Z,23.30
2022-12-31T06:27:58.366Z,24.73
2022-12-31T06:30:25.314Z,24.65
2022-12-31T06:32:52.301Z,24.77
2022-12-31T06:35:19.320Z,23.23
2022-12-31T06:37:46.582Z,23.88
2022-12-31T06:40:13.840Z,24.83
2022-12-31T06:42:41.740Z,24.25
2022-12-31T06:45:08.937Z,23.48
2022-12-31T06:47:35.912Z,23.93
2022-12-31T06:50:02.995Z,20.92
2022-12-31T06:52:30.030Z,23.42
2022-12-31T06:54:57.293Z,25.13
2022-12-31T06:57:24.675Z,23.98
2022-12-31T06:59:51.911Z,24.67
2022-12-31T07:02:36.535Z,24.80
2022-12-31T07:05:32.016Z,29.92
2022-12-31T07:08:06.311Z,32.08
2022-12-31T07:11:08.669Z,37.72
2022-12-31T07:13:41.576Z,39.60
2022-12-31T07:16:11.542Z,36.25
2022-12-31T07:18:52.213Z,33.78
2022-12-31T07:21:30.623Z,33.35
2022-12-31T07:23:57.774Z,32.45
2022-12-31T07:26:49.948Z,33.63
2022-12-31T07:29:30.310Z,31.98
2022-12-31T07:32:00.180Z,32.53
2022-12-31T07:34:51.076Z,32.25
2022-12-31T07:37:48.164Z,32.47
2022-12-31T07:40:36.546Z,33.47
2022-12-31T07:43:34.667Z,35.70
2022-12-31T07:46:13.655Z,34.63
2022-12-31T07:48:40.876Z,36.10
2022-12-31T07:51:10.440Z,36.72
2022-12-31T07:53:37.778Z,36.20
2022-12-31T07:56:07.422Z,37.58
2022-12-31T07:58:40.159Z,38.90
2022-12-31T08:01:12.029Z,39.28
2022-12-31T08:04:14.389Z,41.97
2022-12-31T08:07:16.439Z,40.73
2022-12-31T08:09:51.271Z,41.97
2022-12-31T08:12:19.679Z,48.67
2022-12-31T08:14:48.120Z,53.58
2022-12-31T08:17:17.725Z,41.40
2022-12-31T08:19:45.609Z,43.30
2022-12-31T08:22:24.654Z,38.17
2022-12-31T08:25:09.916Z,37.17
2022-12-31T08:28:13.327Z,43.85
2022-12-31T08:31:05.863Z,42.72
2022-12-31T08:33:41.514Z,40.90
2022-12-31T08:36:36.206Z,39.13
2022-12-31T08:39:07.850Z,38.47
2022-12-31T08:41:45.233Z,39.33
2022-12-31T08:44:36.165Z,39.13
2022-12-31T08:47:03.013Z,41.40
2022-12-31T08:49:33.217Z,41.67
2022-12-31T08:52:00.915Z,45.30
2022-12-31T08:54:28.435Z,42.25
2022-12-31T08:57:04.305Z,42.80
2022-12-31T09:00:02.068Z,40.80
2022-12-31T09:02:58.725Z,41.10
2022-12-31T09:05:50.241Z,43.22
2022-12-31T09:08:47.683Z,43.22
2022-12-31T09:11:23.773Z,42.45
2022-12-31T09:14:21.712Z,42.60
2022-12-31T09:17:00.450Z,41.88
2022-12-31T09:19:27.981Z,43.25
2022-12-31T09:21:55.940Z,43.15
2022-12-31T09:24:23.333Z,44.85
2022-12-31T09:27:15.893Z,35.97
2022-12-31T09:30:01.499Z,43.95
2022-12-31T09:32:58.654Z,45.72
2022-12-31T09:35:33.339Z,47.45
2022-12-31T09:38:29.341Z,49.38
2022-12-31T09:41:37.262Z,47.83
2022-12-31T09:44:24.968Z,49.55
2022-12-31T09:47:21.618Z,49.35
2022-12-31T09:50:15.813Z,47.75
2022-12-31T09:52:42.779Z,46.17
2022-12-31T09:55:12.487Z,46.43
2022-12-31T09:57:40.847Z,46.22
2022-12-31T10:00:34.133Z,47.22
2022-12-31T10:03:11.199Z,45.47
2022-12-31T10:06:03.994Z,45.35
2022-12-31T10:08:55.075Z,42.67
2022-12-31T10:11:42.090Z,41.80
2022-12-31T10:14:30.327Z,42.22
2022-12-31T10:17:12.231Z,40.33
2022-12-31T10:19:42.212Z,39.95
2022-12-31T10:22:44.317Z,39.40
2022-12-31T10:25:38.737Z,38.80
2022-12-31T10:28:27.565Z,37.90
2022-12-31T10:31:12.751Z,37.63
2022-12-31T10:34:13.140Z,38.70
2022-12-31T10:36:53.265Z,38.03
2022-12-31T10:39:29.462Z,36.45
2022-12-31T10:42:16.907Z,38.63
2022-12-31T10:44:55.119Z,37.50
2022-12-31T10:47:47.564Z,32.00
2022-12-31T10:50:51.753Z,35.57
2022-12-31T10:53:46.410Z,38.47
2022-12-31T10:56:31.923Z,39.17
2022-12-31T10:59:17.399Z,36.30
2022-12-31T11:02:21.868Z,37.17
2022-12-31T11:05:23.124Z,36.37
2022-12-31T11:08:11.093Z,36.17
2022-12-31T11:10:54.061Z,32.13
2022-12-31T11:13:40.265Z,31.73
2022-12-31T11:16:36.135Z,28.50
2022-12-31T11:19:35.795Z,28.97
2022-12-31T11:22:25.816Z,27.65
2022-12-31T11:24:52.638Z,28.33
2022-12-31T11:27:50.568Z,26.52
2022-12-31T11:30:38.886Z,25.88
2022-12-31T11:33:18.113Z,23.23
2022-12-31T11:35:55.758Z,29.35
2022-12-31T11:38:28.983Z,35.50
2022-12-31T11:41:20.403Z,31.70
2022-12-31T11:43:50.178Z,27.77
2022-12-31T11:46:35.365Z,37.97
2022-12-31T11:49:02.366Z,34.85
2022-12-31T11:52:00.079Z,30.10
2022-12-31T11:54:46.529Z,26.30
2022-12-31T11:57:28.202Z,26.55
2022-12-31T11:59:59.587Z,29.10
2022-12-31T12:02:34.665Z,31.67
2022-12-31T12:05:10.561Z,24.45
2022-12-31T12:07:38.682Z,22.58
2022-12-31T12:10:26.874Z,24.13
2022-12-31T12:13:00.004Z,22.70
2022-12-31T12:15:31.698Z,22.95
2022-12-31T12:18:05.067Z,23.27
2022-12-31T12:20:37.370Z,23.52
2022-12-31T12:23:25.721Z,22.63
2022-12-31T12:25:53.002Z,23.33
2022-12-31T12:28:25.469Z,21.67
2022-12-31T12:31:02.611Z,24.60
2022-12-31T12:33:31.332Z,23.80
2022-12-31T12:36:13.385Z,23.52
2022-12-31T12:38:40.804Z,23.97
2022-12-31T12:41:19.248Z,25.08
2022-12-31T12:43:46.559Z,23.80
2022-12-31T12:46:27.757Z,25.10
2022-12-31T12:48:57.140Z,24.38
2022-12-31T12:51:48.581Z,24.70
2022-12-31T12:54:34.358Z,27.95
2022-12-31T12:57:31.230Z,25.73
2022-12-31T13:00:20.254Z,26.80
2022-12-31T13:03:21.244Z,27.08
2022-12-31T13:06:09.979Z,26.90
2022-12-31T13:08:51.424Z,26.50
2022-12-31T13:11:24.265Z,27.08
2022-12-31T13:14:10.220Z,26.00
2022-12-31T13:16:42.885Z,23.45
2022-12-31T13:19:31.003Z,22.27
2022-12-31T13:22:23.337Z,27.88
2022-12-31T13:25:08.686Z,25.55
2022-12-31T13:27:39.459Z,23.58
2022-12-31T13:30:40.635Z,22.00
2022-12-31T13:33:24.650Z,22.60
2022-12-31T13:36:05.622Z,21.77
2022-12-31T13:38:41.748Z,25.48
2022-12-31T13:41:15.154Z,26.23
2022-12-31T13:43:53.788Z,22.08
2022-12-31T13:46:41.863Z,24.27
2022-12-31T13:49:46.614Z,26.02
2022-12-31T13:52:32.774Z,27.33
2022-12-31T13:55:24.087Z,24.80
2022-12-31T13:58:32.589Z,23.65
2022-12-31T14:01:18.530Z,17.57
2022-12-31T14:04:11.741Z,25.02
2022-12-31T14:06:53.815Z,24.98
2022-12-31T14:09:25.648Z,20.27
2022-12-31T14:12:24.178Z,23.23
2022-12-31T14:15:18.510Z,24.00
2022-12-31T14:18:10.042Z,21.45
2022-12-31T14:20:57.075Z,26.60
2022-12-31T14:23:40.333Z,24.88
2022-12-31T14:26:20.292Z,20.23
2022-12-31T14:29:11.320Z,22.17
2022-12-31T14:31:50.364Z,28.50
2022-12-31T14:34:17.492Z,25.05
2022-12-31T14:37:09.523Z,28.77
2022-12-31T14:40:19.243Z,26.25
2022-12-31T14:43:12.131Z,25.60
2022-12-31T14:45:39.040Z,39.53
2022-12-31T14:48:47.524Z,29.63
2022-12-31T14:51:15.074Z,29.27
2022-12-31T14:53:52.584Z,27.40
2022-12-31T14:56:40.850Z,19.73
2022-12-31T14:59:40.831Z,21.25
2022-12-31T15:02:28.189Z,24.25
2022-12-31T15:05:11.600Z,26.33
2022-12-31T15:07:47.580Z,25.15
2022-12-31T15:10:23.689Z,39.63
2022-12-31T15:13:09.793Z,30.02
2022-12-31T15:16:27.291Z,28.48
2022-12-31T15:18:54.242Z,26.48
2022-12-31T15:21:41.692Z,28.58
2022-12-31T15:24:34.975Z,27.87
2022-12-31T15:27:05.091Z,25.42
2022-12-31T15:29:36.644Z,26.20
2022-12-31T15:32:07.773Z,23.38
2022-12-31T15:34:36.768Z,21.63
2022-12-31T15:37:27.877Z,25.43
2022-12-31T15:40:08.025Z,25.30
2022-12-31T15:42:50.033Z,21.40
2022-12-31T15:45:26.165Z,22.13
2022-12-31T15:47:58.885Z,19.45
2022-12-31T15:50:26.329Z,19.50
2022-12-31T15:52:57.752Z,18.98
2022-12-31T15:55:33.025Z,18.42
2022-12-31T15:58:22.789Z,21.25
2022-12-31T16:01:01.825Z,22.40
2022-12-31T16:03:31.328Z,19.93
2022-12-31T16:06:03.891Z,24.65
2022-12-31T16:08:35.341Z,19.17
2022-12-31T16:11:05.387Z,26.95
2022-12-31T16:13:35.193Z,23.55
2022-12-31T16:16:21.554Z,21.37
2022-12-31T16:18:48.650Z,22.63
2022-12-31T16:21:46.082Z,20.58
2022-12-31T16:24:35.213Z,28.17
2022-12-31T16:27:12.672Z,25.95
2022-12-31T16:29:46.434Z,22.93
2022-12-31T16:32:17.406Z,30.85
2022-12-31T16:34:45.502Z,22.23
2022-12-31T16:37:20.720Z,21.67
2022-12-31T16:39:56.551Z,21.63
2022-12-31T16:42:32.943Z,23.40
2022-12-31T16:45:18.596Z,21.75
2022-12-31T16:47:45.748Z,22.02
2022-12-31T16:50:17.818Z,19.75
2022-12-31T16:52:48.183Z,21.00
2022-12-31T16:55:22.053Z,20.20
2022-12-31T16:58:13.772Z,26.00
2022-12-31T17:00:41.669Z,20.60
2022-12-31T17:03:17.391Z,24.73
2022-12-31T17:05:58.897Z,27.27
2022-12-31T17:08:43.239Z,26.80
2022-12-31T17:11:28.115Z,21.20
2022-12-31T17:14:16.554Z,27.00
2022-12-31T17:17:08.134Z,35.33
2022-12-31T17:19:42.026Z,28.25
2022-12-31T17:22:34.376Z,33.80
2022-12-31T17:25:14.835Z,25.45
2022-12-31T17:27:53.501Z,23.52
2022-12-31T17:30:27.899Z,20.63
2022-12-31T17:33:01.056Z,29.98
2022-12-31T17:35:39.542Z,28.70
2022-12-31T17:38:30.407Z,30.13
2022-12-31T17:41:06.575Z,29.02
2022-12-31T17:43:36.000Z,25.77
2022-12-31T17:46:08.991Z,28.55
2022-12-31T17:48:37.182Z,21.47
2022-12-31T17:51:04.373Z,26.63
2022-12-31T17:53:31.273Z,27.15
2022-12-31T17:56:04.426Z,24.25
2022-12-31T17:58:45.254Z,24.15
2022-12-31T18:01:15.536Z,26.57
2022-12-31T18:03:42.664Z,25.77
2022-12-31T18:06:16.388Z,22.50
2022-12-31T18:08:44.172Z,27.42
2022-12-31T18:11:23.307Z,23.63
2022-12-31T18:13:54.159Z,23.00
2022-12-31T18:16:23.879Z,22.23
2022-12-31T18:18:50.958Z,20.02
2022-12-31T18:21:29.540Z,21.50
2022-12-31T18:26:26.948Z,20.60
2022-12-31T18:28:54.320Z,22.27
2022-12-31T18:31:29.869Z,23.42
2022-12-31T18:33:59.057Z,23.92
2022-12-31T18:36:29.188Z,21.15
2022-12-31T18:38:56.426Z,17.77
2022-12-31T18:41:28.461Z,18.58
2022-12-31T18:43:56.205Z,20.90
2022-12-31T18:46:24.830Z,25.50
2022-12-31T18:48:51.906Z,19.42
2022-12-31T18:51:31.130Z,19.07
2022-12-31T18:54:00.419Z,23.20
2022-12-31T18:56:28.250Z,22.58
2022-12-31T18:58:55.790Z,18.02
2022-12-31T19:01:28.063Z,18.58
2022-12-31T19:04:00.387Z,17.47
2022-12-31T19:06:28.700Z,17.95
2022-12-31T19:08:56.223Z,18.75
2022-12-31T19:11:23.768Z,20.63
2022-12-31T19:13:50.921Z,18.02
2022-12-31T19:16:18.211Z,18.53
2022-12-31T19:18:45.708Z,16.83
2022-12-31T19:21:21.751Z,17.15
2022-12-31T19:23:49.794Z,20.63
2022-12-31T19:26:19.692Z,26.17
2022-12-31T19:28:47.544Z,20.33
2022-12-31T19:31:18.096Z,19.65
2022-12-31T19:33:45.124Z,21.25
2022-12-31T19:36:20.470Z,19.17
2022-12-31T19:38:47.754Z,23.98
2022-12-31T19:41:20.051Z,25.50
2022-12-31T19:43:47.935Z,22.02
2022-12-31T19:46:16.607Z,21.65
2022-12-31T19:48:44.400Z,20.52
2022-12-31T19:51:16.620Z,19.58
2022-12-31T19:53:44.496Z,17.83
2022-12-31T19:56:21.111Z,16.00
2022-12-31T19:58:48.053Z,16.20
2022-12-31T20:01:20.486Z,17.42
2022-12-31T20:03:48.166Z,21.88
2022-12-31T20:06:15.314Z,21.30
2022-12-31T20:08:42.459Z,21.88
2022-12-31T20:11:15.100Z,19.83
2022-12-31T20:13:42.351Z,17.60
2022-12-31T20:16:13.310Z,19.83
2022-12-31T20:18:42.081Z,17.80
2022-12-31T20:21:15.930Z,17.75
2022-12-31T20:23:42.983Z,19.50
2022-12-31T20:26:12.392Z,22.52
2022-12-31T20:28:39.866Z,18.50
2022-12-31T20:31:12.303Z,19.90
2022-12-31T20:33:42.679Z,20.15
2022-12-31T20:36:12.673Z,22.50
2022-12-31T20:38:39.855Z,22.45
2022-12-31T20:41:15.537Z,22.73
2022-12-31T20:43:42.657Z,22.10
2022-12-31T20:46:15.204Z,22.75
2022-12-31T20:48:44.203Z,22.85
2022-12-31T20:51:11.887Z,22.88
2022-12-31T20:53:39.099Z,21.73
2022-12-31T20:56:09.429Z,22.17
2022-12-31T20:58:37.380Z,21.02
2022-12-31T21:01:09.582Z,21.17
2022-12-31T21:06:26.033Z,25.15
2022-12-31T21:08:54.367Z,19.57
2022-12-31T21:11:21.514Z,19.13
2022-12-31T21:13:51.776Z,19.05
2022-12-31T21:16:19.069Z,20.20
2022-12-31T21:18:50.529Z,18.58
2022-12-31T21:21:17.988Z,17.47
2022-12-31T21:23:46.013Z,17.40
2022-12-31T21:26:13.202Z,20.92
2022-12-31T21:28:40.156Z,19.00
2022-12-31T21:31:08.960Z,18.65
2022-12-31T21:33:36.086Z,18.90
2022-12-31T21:36:04.909Z,18.60
2022-12-31T21:38:32.350Z,19.52
2022-12-31T21:41:07.096Z,19.48
2022-12-31T21:43:34.236Z,19.13
2022-12-31T21:46:03.131Z,20.23
2022-12-31T21:48:30.388Z,19.55
2022-12-31T21:51:16.365Z,23.00
2022-12-31T21:53:43.361Z,22.48
2022-12-31T21:56:13.415Z,21.85
2022-12-31T21:58:43.048Z,20.53
2022-12-31T22:01:21.540Z,21.98
2022-12-31T22:03:48.789Z,21.55
2022-12-31T22:06:20.701Z,21.30
2022-12-31T22:08:53.386Z,23.52
2022-12-31T22:11:22.877Z,22.17
2022-12-31T22:13:50.668Z,21.80
2022-12-31T22:16:19.061Z,22.10
2022-12-31T22:18:46.374Z,25.25
2022-12-31T22:21:19.501Z,23.55
2022-12-31T22:23:52.380Z,21.93
2022-12-31T22:26:22.367Z,21.95
2022-12-31T22:28:50.056Z,27.55
2022-12-31T22:31:19.887Z,24.30
2022-12-31T22:33:47.285Z,20.88
2022-12-31T22:36:17.436Z,21.13
2022-12-31T22:38:44.989Z,20.48
2022-12-31T22:41:17.617Z,19.48
2022-12-31T22:43:47.457Z,21.42
2022-12-31T22:46:17.960Z,21.15
2022-12-31T22:48:45.281Z,18.70
2022-12-31T22:51:13.335Z,20.77
2022-12-31T22:53:40.473Z,23.27
2022-12-31T22:56:09.333Z,22.65
2022-12-31T22:58:36.888Z,20.25
2022-12-31T23:01:09.568Z,17.73
2022-12-31T23:03:36.661Z,17.52
2022-12-31T23:06:03.690Z,17.20
2022-12-31T23:08:31.011Z,18.15
2022-12-31T23:10:59.511Z,16.88
2022-12-31T23:13:28.730Z,17.33
2022-12-31T23:15:55.698Z,18.58
2022-12-31T23:18:22.612Z,18.23
2022-12-31T23:20:49.464Z,19.88
2022-12-31T23:23:17.049Z,17.35
2022-12-31T23:25:51.870Z,19.27
2022-12-31T23:28:25.045Z,17.75
2022-12-31T23:30:53.019Z,16.55
2022-12-31T23:33:22.310Z,15.85
2022-12-31T23:35:49.585Z,16.15
2022-12-31T23:38:18.015Z,15.40
2022-12-31T23:40:45.476Z,14.18
2022-12-31T23:43:20.519Z,14.50
2022-12-31T23:45:51.279Z,15.88
2022-12-31T23:48:18.201Z,13.25
2022-12-31T23:50:50.813Z,14.47
2022-12-31T23:53:19.486Z,21.52
2022-12-31T23:55:46.396Z,24.75
2022-12-31T23:58:13.423Z,22.02
